OAJL

Details ICAO OAJL (JAA)
Name JALALABAD
Region Afghanistan
Timezone Asia/Kabul (UTC+4.5)
Plans Departing 3
Arriving 9
Stats Elevation 1,814 ft / 553 m (AMSL)
Location 34.399840° 70.498625°
Runways 1
Magnetic Variation 3.048° E
Sunrise 2018-05-22 00:12:50 UTC / 2018-05-22 04:42:50 Local
Sunset 2018-05-22 14:19:20 UTC / 2018-05-22 18:49:20 Local
Advertisement - Login to hide

Runways

ID Width Length Bearing (true) Bearing (mag) Surface Threshold Offset Overrun Length
13 148 ft / 45 m 7,263 ft / 2,214 m 131.57° 128.52° Asphalt 0 ft / 0 m 0 ft / 0 m
31 148 ft / 45 m 7,263 ft / 2,214 m 311.58° 308.53° Asphalt 0 ft / 0 m 0 ft / 0 m

Map

Weather


0- 5 10 15 20 25 30 35+ Temperature / ° C

Clouds and Precipitation
Forecast for 2018-05-22 12:00 UTC. Updated 5 hours ago

Ground ~20,000 ft ~40,000 ft Winds

METAR

OAJL 221555Z 30010KT 9000 HZ SCT120 BKN150 29/04 A2988 RMK AO2A SLP080 T02880035

TAF

TAF OAJL 221600Z 2216/2322 VRB06KT 9999 FEW160 QNH2986INS BECMG 2304/2305 30010G18KT 9999 SKC QNH2980INS BECMG 2314/2315 26006KT 9999 FEW120 SCT180 QNH2984INS TX35/2310Z TN22/2223Z

Frequencies

Tower 118.50 MHz TWR
Warning: Do not use this data for real-world aviation or navigation. No guarantee of current accuracy is given.